TAF Text Data
IDs:
Format:
Raw Decoded Include METAR

Data at: 2333 UTC 29 May 2020

KSLN 292253Z VRB03KT 10SM CLR 26/08 A3016 RMK AO2 SLP204 T02560078

KSLN 291720Z 2918/3018 08006KT P6SM SCT250
  FM291900 04005KT P6SM SCT150
  FM300000 11010KT P6SM SKC
  FM300800 15005KT P6SM VCSH SCT120 BKN200


KATW 292245Z 30012KT 10SM BKN070 16/05 A3002

KATW 291735Z 2918/3018 31011G18KT P6SM BKN045
  FM300100 31005KT P6SM SCT060
  FM301600 33010G15KT P6SM SCT040